sensor_id;sensor_type;location;lat;lon;timestamp;temperature;humidity
3208;DHT22;1616;52.394;9.756;2023-12-20T00:00:39;8.00;99.90
3208;DHT22;1616;52.394;9.756;2023-12-20T00:03:05;8.00;99.90
3208;DHT22;1616;52.394;9.756;2023-12-20T00:05:31;8.00;99.90
3208;DHT22;1616;52.394;9.756;2023-12-20T00:08:00;7.90;99.90
3208;DHT22;1616;52.394;9.756;2023-12-20T00:10:26;7.90;99.90
3208;DHT22;1616;52.394;9.756;2023-12-20T00:12:53;7.90;99.90
3208;DHT22;1616;52.394;9.756;2023-12-20T00:15:18;7.80;99.90
3208;DHT22;1616;52.394;9.756;2023-12-20T00:17:44;7.80;99.90
3208;DHT22;1616;52.394;9.756;2023-12-20T00:20:10;7.70;99.90
3208;DHT22;1616;52.394;9.756;2023-12-20T00:22:35;7.70;99.90
3208;DHT22;1616;52.394;9.756;2023-12-20T00:25:01;7.60;99.90
3208;DHT22;1616;52.394;9.756;2023-12-20T00:27:26;7.60;99.90
3208;DHT22;1616;52.394;9.756;2023-12-20T00:29:52;7.60;99.90
3208;DHT22;1616;52.394;9.756;2023-12-20T00:32:18;7.60;99.90
3208;DHT22;1616;52.394;9.756;2023-12-20T00:34:43;7.50;99.90
3208;DHT22;1616;52.394;9.756;2023-12-20T00:37:09;7.50;99.90
3208;DHT22;1616;52.394;9.756;2023-12-20T00:39:36;7.50;99.90
3208;DHT22;1616;52.394;9.756;2023-12-20T00:42:01;7.40;99.90
3208;DHT22;1616;52.394;9.756;2023-12-20T00:44:27;7.40;99.90
3208;DHT22;1616;52.394;9.756;2023-12-20T00:46:52;7.40;99.90
3208;DHT22;1616;52.394;9.756;2023-12-20T00:49:18;7.40;99.90
3208;DHT22;1616;52.394;9.756;2023-12-20T00:51:43;7.30;99.90
3208;DHT22;1616;52.394;9.756;2023-12-20T00:54:09;7.30;99.90
3208;DHT22;1616;52.394;9.756;2023-12-20T00:56:35;7.30;99.90
3208;DHT22;1616;52.394;9.756;2023-12-20T00:59:01;7.30;99.90
3208;DHT22;1616;52.394;9.756;2023-12-20T01:01:26;7.30;99.90
3208;DHT22;1616;52.394;9.756;2023-12-20T01:03:52;7.30;99.90
3208;DHT22;1616;52.394;9.756;2023-12-20T01:06:18;7.20;99.90
3208;DHT22;1616;52.394;9.756;2023-12-20T01:08:44;7.20;99.90
3208;DHT22;1616;52.394;9.756;2023-12-20T01:11:10;7.20;99.90
3208;DHT22;1616;52.394;9.756;2023-12-20T01:13:36;7.20;99.90
3208;DHT22;1616;52.394;9.756;2023-12-20T01:16:02;7.20;99.90
3208;DHT22;1616;52.394;9.756;2023-12-20T01:18:28;7.10;99.90
3208;DHT22;1616;52.394;9.756;2023-12-20T01:20:53;7.10;99.90
3208;DHT22;1616;52.394;9.756;2023-12-20T01:23:19;7.20;99.90
3208;DHT22;1616;52.394;9.756;2023-12-20T01:25:45;7.20;99.90
3208;DHT22;1616;52.394;9.756;2023-12-20T01:28:10;7.10;99.90
3208;DHT22;1616;52.394;9.756;2023-12-20T01:30:36;7.10;99.90
3208;DHT22;1616;52.394;9.756;2023-12-20T01:33:02;7.20;99.90
3208;DHT22;1616;52.394;9.756;2023-12-20T01:35:27;7.10;99.90
3208;DHT22;1616;52.394;9.756;2023-12-20T01:37:53;7.10;99.90
3208;DHT22;1616;52.394;9.756;2023-12-20T01:40:22;7.10;99.90
3208;DHT22;1616;52.394;9.756;2023-12-20T01:43:01;7.10;99.90
3208;DHT22;1616;52.394;9.756;2023-12-20T01:45:26;7.20;99.90
3208;DHT22;1616;52.394;9.756;2023-12-20T01:47:53;7.20;99.90
3208;DHT22;1616;52.394;9.756;2023-12-20T01:50:20;7.20;99.90
3208;DHT22;1616;52.394;9.756;2023-12-20T01:52:46;7.10;99.90
3208;DHT22;1616;52.394;9.756;2023-12-20T01:55:12;7.10;99.90
3208;DHT22;1616;52.394;9.756;2023-12-20T01:57:42;7.10;99.90
3208;DHT22;1616;52.394;9.756;2023-12-20T02:00:09;7.00;99.90
3208;DHT22;1616;52.394;9.756;2023-12-20T02:02:38;7.00;99.90
3208;DHT22;1616;52.394;9.756;2023-12-20T02:05:05;6.90;99.90
3208;DHT22;1616;52.394;9.756;2023-12-20T02:07:31;6.90;99.90
3208;DHT22;1616;52.394;9.756;2023-12-20T02:09:57;6.80;99.90
3208;DHT22;1616;52.394;9.756;2023-12-20T02:12:22;6.80;99.90
3208;DHT22;1616;52.394;9.756;2023-12-20T02:14:48;6.80;99.90
3208;DHT22;1616;52.394;9.756;2023-12-20T02:17:15;6.80;99.90
3208;DHT22;1616;52.394;9.756;2023-12-20T02:19:41;6.80;99.90
3208;DHT22;1616;52.394;9.756;2023-12-20T02:22:12;6.80;99.90
3208;DHT22;1616;52.394;9.756;2023-12-20T02:24:38;6.80;99.90
3208;DHT22;1616;52.394;9.756;2023-12-20T02:27:06;6.80;99.90
3208;DHT22;1616;52.394;9.756;2023-12-20T02:29:35;6.70;99.90
3208;DHT22;1616;52.394;9.756;2023-12-20T02:32:02;6.70;99.90
3208;DHT22;1616;52.394;9.756;2023-12-20T02:34:28;6.80;99.90
3208;DHT22;1616;52.394;9.756;2023-12-20T02:36:54;6.80;99.90
3208;DHT22;1616;52.394;9.756;2023-12-20T02:39:21;6.80;99.90
3208;DHT22;1616;52.394;9.756;2023-12-20T02:41:48;6.80;99.90
3208;DHT22;1616;52.394;9.756;2023-12-20T02:44:14;6.80;99.90
3208;DHT22;1616;52.394;9.756;2023-12-20T02:46:39;6.70;99.90
3208;DHT22;1616;52.394;9.756;2023-12-20T02:49:06;6.70;99.90
3208;DHT22;1616;52.394;9.756;2023-12-20T02:51:32;6.60;99.90
3208;DHT22;1616;52.394;9.756;2023-12-20T02:53:58;6.60;99.90
3208;DHT22;1616;52.394;9.756;2023-12-20T02:56:25;6.50;99.90
3208;DHT22;1616;52.394;9.756;2023-12-20T02:58:51;6.50;99.90
3208;DHT22;1616;52.394;9.756;2023-12-20T03:01:16;6.50;99.90
3208;DHT22;1616;52.394;9.756;2023-12-20T03:03:42;6.40;99.90
3208;DHT22;1616;52.394;9.756;2023-12-20T03:06:07;6.50;99.90
3208;DHT22;1616;52.394;9.756;2023-12-20T03:08:33;6.40;99.90
3208;DHT22;1616;52.394;9.756;2023-12-20T03:10:59;6.40;99.90
3208;DHT22;1616;52.394;9.756;2023-12-20T03:13:25;6.40;99.90
3208;DHT22;1616;52.394;9.756;2023-12-20T03:15:50;6.30;99.90
3208;DHT22;1616;52.394;9.756;2023-12-20T03:18:16;6.30;99.90
3208;DHT22;1616;52.394;9.756;2023-12-20T03:20:42;6.30;99.90
3208;DHT22;1616;52.394;9.756;2023-12-20T03:23:08;6.30;99.90
3208;DHT22;1616;52.394;9.756;2023-12-20T03:25:34;6.30;99.90
3208;DHT22;1616;52.394;9.756;2023-12-20T03:28:00;6.20;99.90
3208;DHT22;1616;52.394;9.756;2023-12-20T03:30:26;6.20;99.90
3208;DHT22;1616;52.394;9.756;2023-12-20T03:32:51;6.10;99.90
3208;DHT22;1616;52.394;9.756;2023-12-20T03:35:17;6.10;99.90
3208;DHT22;1616;52.394;9.756;2023-12-20T03:37:43;6.10;99.90
3208;DHT22;1616;52.394;9.756;2023-12-20T03:40:09;6.10;99.90
3208;DHT22;1616;52.394;9.756;2023-12-20T03:42:37;6.10;99.90
3208;DHT22;1616;52.394;9.756;2023-12-20T03:45:02;6.10;99.90
3208;DHT22;1616;52.394;9.756;2023-12-20T03:47:28;6.10;99.90
3208;DHT22;1616;52.394;9.756;2023-12-20T03:49:53;6.00;99.90
3208;DHT22;1616;52.394;9.756;2023-12-20T03:52:19;6.10;99.90
3208;DHT22;1616;52.394;9.756;2023-12-20T03:54:45;6.10;99.90
3208;DHT22;1616;52.394;9.756;2023-12-20T03:57:10;6.10;99.90
3208;DHT22;1616;52.394;9.756;2023-12-20T03:59:36;6.10;99.90
3208;DHT22;1616;52.394;9.756;2023-12-20T04:02:03;6.20;99.90
3208;DHT22;1616;52.394;9.756;2023-12-20T04:04:28;6.20;99.90
3208;DHT22;1616;52.394;9.756;2023-12-20T04:06:54;6.20;99.90
3208;DHT22;1616;52.394;9.756;2023-12-20T04:09:20;6.20;99.90
3208;DHT22;1616;52.394;9.756;2023-12-20T04:11:45;6.20;99.90
3208;DHT22;1616;52.394;9.756;2023-12-20T04:14:11;6.30;99.90
3208;DHT22;1616;52.394;9.756;2023-12-20T04:16:37;6.30;99.90
3208;DHT22;1616;52.394;9.756;2023-12-20T04:19:03;6.30;99.90
3208;DHT22;1616;52.394;9.756;2023-12-20T04:21:29;6.30;99.90
3208;DHT22;1616;52.394;9.756;2023-12-20T04:23:58;6.40;99.90
3208;DHT22;1616;52.394;9.756;2023-12-20T04:26:23;6.30;99.90
3208;DHT22;1616;52.394;9.756;2023-12-20T04:28:49;6.40;99.90
3208;DHT22;1616;52.394;9.756;2023-12-20T04:31:14;6.40;99.90
3208;DHT22;1616;52.394;9.756;2023-12-20T04:33:40;6.40;99.90
3208;DHT22;1616;52.394;9.756;2023-12-20T04:36:06;6.40;99.90
3208;DHT22;1616;52.394;9.756;2023-12-20T04:38:34;6.40;99.90
3208;DHT22;1616;52.394;9.756;2023-12-20T04:41:00;6.50;99.90
3208;DHT22;1616;52.394;9.756;2023-12-20T04:43:25;6.50;99.90
3208;DHT22;1616;52.394;9.756;2023-12-20T04:45:51;6.50;99.90
3208;DHT22;1616;52.394;9.756;2023-12-20T04:48:17;6.60;99.90
3208;DHT22;1616;52.394;9.756;2023-12-20T04:50:42;6.60;99.90
3208;DHT22;1616;52.394;9.756;2023-12-20T04:53:08;6.60;99.90
3208;DHT22;1616;52.394;9.756;2023-12-20T04:55:33;6.60;99.90
3208;DHT22;1616;52.394;9.756;2023-12-20T04:57:59;6.60;99.90
3208;DHT22;1616;52.394;9.756;2023-12-20T05:00:24;6.70;99.90
3208;DHT22;1616;52.394;9.756;2023-12-20T05:02:50;6.70;99.90
3208;DHT22;1616;52.394;9.756;2023-12-20T05:05:15;6.70;99.90
3208;DHT22;1616;52.394;9.756;2023-12-20T05:07:43;6.70;99.90
3208;DHT22;1616;52.394;9.756;2023-12-20T05:10:09;6.70;99.90
3208;DHT22;1616;52.394;9.756;2023-12-20T05:12:35;6.80;99.90
3208;DHT22;1616;52.394;9.756;2023-12-20T05:15:00;6.80;99.90
3208;DHT22;1616;52.394;9.756;2023-12-20T05:17:26;6.80;99.90
3208;DHT22;1616;52.394;9.756;2023-12-20T05:19:52;6.80;99.90
3208;DHT22;1616;52.394;9.756;2023-12-20T05:22:19;6.90;99.90
3208;DHT22;1616;52.394;9.756;2023-12-20T05:24:44;6.90;99.90
3208;DHT22;1616;52.394;9.756;2023-12-20T05:27:10;6.90;99.90
3208;DHT22;1616;52.394;9.756;2023-12-20T05:29:37;7.00;99.90
3208;DHT22;1616;52.394;9.756;2023-12-20T05:32:03;7.00;99.90
3208;DHT22;1616;52.394;9.756;2023-12-20T05:34:30;6.90;99.90
3208;DHT22;1616;52.394;9.756;2023-12-20T05:36:56;6.90;99.90
3208;DHT22;1616;52.394;9.756;2023-12-20T05:39:21;6.80;99.90
3208;DHT22;1616;52.394;9.756;2023-12-20T05:41:47;6.80;99.90
3208;DHT22;1616;52.394;9.756;2023-12-20T05:44:13;6.80;99.90
3208;DHT22;1616;52.394;9.756;2023-12-20T05:46:39;6.70;99.90
3208;DHT22;1616;52.394;9.756;2023-12-20T05:49:05;6.70;99.90
3208;DHT22;1616;52.394;9.756;2023-12-20T05:51:31;6.70;99.90
3208;DHT22;1616;52.394;9.756;2023-12-20T05:53:57;6.70;99.90
3208;DHT22;1616;52.394;9.756;2023-12-20T05:56:23;6.70;99.90
3208;DHT22;1616;52.394;9.756;2023-12-20T05:58:48;6.70;99.90
3208;DHT22;1616;52.394;9.756;2023-12-20T06:01:15;6.70;99.90
3208;DHT22;1616;52.394;9.756;2023-12-20T06:03:42;6.70;99.90
3208;DHT22;1616;52.394;9.756;2023-12-20T06:06:08;6.70;99.90
3208;DHT22;1616;52.394;9.756;2023-12-20T06:08:34;6.70;99.90
3208;DHT22;1616;52.394;9.756;2023-12-20T06:11:00;6.70;99.90
3208;DHT22;1616;52.394;9.756;2023-12-20T06:13:26;6.70;99.90
3208;DHT22;1616;52.394;9.756;2023-12-20T06:15:54;6.70;99.90
3208;DHT22;1616;52.394;9.756;2023-12-20T06:18:19;6.70;99.90
3208;DHT22;1616;52.394;9.756;2023-12-20T06:20:45;6.70;99.90
3208;DHT22;1616;52.394;9.756;2023-12-20T06:23:11;6.70;99.90
3208;DHT22;1616;52.394;9.756;2023-12-20T06:25:37;6.80;99.90
3208;DHT22;1616;52.394;9.756;2023-12-20T06:28:03;6.70;99.90
3208;DHT22;1616;52.394;9.756;2023-12-20T06:30:29;6.70;99.90
3208;DHT22;1616;52.394;9.756;2023-12-20T06:32:55;6.70;99.90
3208;DHT22;1616;52.394;9.756;2023-12-20T06:35:23;6.70;99.90
3208;DHT22;1616;52.394;9.756;2023-12-20T06:37:48;6.70;99.90
3208;DHT22;1616;52.394;9.756;2023-12-20T06:40:14;6.80;99.90
3208;DHT22;1616;52.394;9.756;2023-12-20T06:42:39;6.90;99.90
3208;DHT22;1616;52.394;9.756;2023-12-20T06:45:05;6.80;99.90
3208;DHT22;1616;52.394;9.756;2023-12-20T06:47:31;6.80;99.90
3208;DHT22;1616;52.394;9.756;2023-12-20T06:49:57;6.90;99.90
3208;DHT22;1616;52.394;9.756;2023-12-20T06:52:22;6.90;99.90
3208;DHT22;1616;52.394;9.756;2023-12-20T06:54:49;6.80;99.90
3208;DHT22;1616;52.394;9.756;2023-12-20T06:57:15;6.80;99.90
3208;DHT22;1616;52.394;9.756;2023-12-20T06:59:41;6.80;99.90
3208;DHT22;1616;52.394;9.756;2023-12-20T07:02:06;6.80;99.90
3208;DHT22;1616;52.394;9.756;2023-12-20T07:04:33;6.70;99.90
3208;DHT22;1616;52.394;9.756;2023-12-20T07:06:59;6.70;99.90
3208;DHT22;1616;52.394;9.756;2023-12-20T07:09:26;6.70;99.90
3208;DHT22;1616;52.394;9.756;2023-12-20T07:11:52;6.60;99.90
3208;DHT22;1616;52.394;9.756;2023-12-20T07:14:18;6.60;99.90
3208;DHT22;1616;52.394;9.756;2023-12-20T07:16:44;6.60;99.90
3208;DHT22;1616;52.394;9.756;2023-12-20T07:19:09;6.60;99.90
3208;DHT22;1616;52.394;9.756;2023-12-20T07:21:35;6.50;99.90
3208;DHT22;1616;52.394;9.756;2023-12-20T07:24:01;6.50;99.90
3208;DHT22;1616;52.394;9.756;2023-12-20T07:26:26;6.50;99.90
3208;DHT22;1616;52.394;9.756;2023-12-20T07:28:52;6.50;99.90
3208;DHT22;1616;52.394;9.756;2023-12-20T07:31:18;6.50;99.90
3208;DHT22;1616;52.394;9.756;2023-12-20T07:33:44;6.50;99.90
3208;DHT22;1616;52.394;9.756;2023-12-20T07:36:10;6.60;99.90
3208;DHT22;1616;52.394;9.756;2023-12-20T07:38:36;6.70;99.90
3208;DHT22;1616;52.394;9.756;2023-12-20T07:41:01;6.70;99.90
3208;DHT22;1616;52.394;9.756;2023-12-20T07:43:27;6.70;99.90
3208;DHT22;1616;52.394;9.756;2023-12-20T07:45:52;6.70;99.90
3208;DHT22;1616;52.394;9.756;2023-12-20T07:48:18;6.70;99.90
3208;DHT22;1616;52.394;9.756;2023-12-20T07:50:43;6.80;99.90
3208;DHT22;1616;52.394;9.756;2023-12-20T07:53:09;6.70;99.90
3208;DHT22;1616;52.394;9.756;2023-12-20T07:55:34;6.70;99.90
3208;DHT22;1616;52.394;9.756;2023-12-20T07:58:00;6.70;99.90
3208;DHT22;1616;52.394;9.756;2023-12-20T08:00:27;6.60;99.90
3208;DHT22;1616;52.394;9.756;2023-12-20T08:02:53;6.60;99.90
3208;DHT22;1616;52.394;9.756;2023-12-20T08:05:19;6.50;99.90
3208;DHT22;1616;52.394;9.756;2023-12-20T08:07:44;6.50;99.90
3208;DHT22;1616;52.394;9.756;2023-12-20T08:10:10;6.50;99.90
3208;DHT22;1616;52.394;9.756;2023-12-20T08:12:36;6.50;99.90
3208;DHT22;1616;52.394;9.756;2023-12-20T08:15:02;6.50;99.90
3208;DHT22;1616;52.394;9.756;2023-12-20T08:17:30;6.50;99.90
3208;DHT22;1616;52.394;9.756;2023-12-20T08:19:56;6.60;99.90
3208;DHT22;1616;52.394;9.756;2023-12-20T08:22:22;6.60;99.90
3208;DHT22;1616;52.394;9.756;2023-12-20T08:24:47;6.60;99.90
3208;DHT22;1616;52.394;9.756;2023-12-20T08:27:13;6.60;99.90
3208;DHT22;1616;52.394;9.756;2023-12-20T08:29:39;6.70;99.90
3208;DHT22;1616;52.394;9.756;2023-12-20T08:32:05;6.70;99.90
3208;DHT22;1616;52.394;9.756;2023-12-20T08:34:30;6.70;99.90
3208;DHT22;1616;52.394;9.756;2023-12-20T08:36:56;6.80;99.90
3208;DHT22;1616;52.394;9.756;2023-12-20T08:39:22;6.90;99.90
3208;DHT22;1616;52.394;9.756;2023-12-20T08:41:48;7.00;99.90
3208;DHT22;1616;52.394;9.756;2023-12-20T08:44:13;7.10;99.90
3208;DHT22;1616;52.394;9.756;2023-12-20T08:46:39;7.10;99.90
3208;DHT22;1616;52.394;9.756;2023-12-20T08:49:05;7.10;99.90
3208;DHT22;1616;52.394;9.756;2023-12-20T08:51:31;7.20;99.90
3208;DHT22;1616;52.394;9.756;2023-12-20T08:53:56;7.20;99.90
3208;DHT22;1616;52.394;9.756;2023-12-20T08:56:22;7.20;99.90
3208;DHT22;1616;52.394;9.756;2023-12-20T08:58:47;7.20;99.90
3208;DHT22;1616;52.394;9.756;2023-12-20T09:01:14;7.20;99.90
3208;DHT22;1616;52.394;9.756;2023-12-20T09:03:40;7.20;99.90
3208;DHT22;1616;52.394;9.756;2023-12-20T09:06:07;7.20;99.90
3208;DHT22;1616;52.394;9.756;2023-12-20T09:08:33;7.20;99.90
3208;DHT22;1616;52.394;9.756;2023-12-20T09:10:59;7.30;99.90
3208;DHT22;1616;52.394;9.756;2023-12-20T09:13:26;7.40;99.90
3208;DHT22;1616;52.394;9.756;2023-12-20T09:15:56;7.50;99.90
3208;DHT22;1616;52.394;9.756;2023-12-20T09:18:22;7.50;99.90
3208;DHT22;1616;52.394;9.756;2023-12-20T09:20:48;7.50;99.90
3208;DHT22;1616;52.394;9.756;2023-12-20T09:23:15;7.50;99.90
3208;DHT22;1616;52.394;9.756;2023-12-20T09:25:40;7.50;99.90
3208;DHT22;1616;52.394;9.756;2023-12-20T09:28:06;7.60;99.90
3208;DHT22;1616;52.394;9.756;2023-12-20T09:30:31;7.60;99.90
3208;DHT22;1616;52.394;9.756;2023-12-20T09:32:57;7.60;99.90
3208;DHT22;1616;52.394;9.756;2023-12-20T09:35:23;7.60;99.90
3208;DHT22;1616;52.394;9.756;2023-12-20T09:37:49;7.60;99.90
3208;DHT22;1616;52.394;9.756;2023-12-20T09:40:18;7.70;99.90
3208;DHT22;1616;52.394;9.756;2023-12-20T09:42:58;6.50;99.90
3208;DHT22;1616;52.394;9.756;2023-12-20T09:45:24;7.70;99.90
3208;DHT22;1616;52.394;9.756;2023-12-20T09:47:54;7.70;99.90
3208;DHT22;1616;52.394;9.756;2023-12-20T09:50:22;7.80;99.90
3208;DHT22;1616;52.394;9.756;2023-12-20T09:52:53;7.80;99.90
3208;DHT22;1616;52.394;9.756;2023-12-20T09:55:25;7.90;99.90
3208;DHT22;1616;52.394;9.756;2023-12-20T09:57:52;7.90;99.90
3208;DHT22;1616;52.394;9.756;2023-12-20T10:00:19;8.10;99.90
3208;DHT22;1616;52.394;9.756;2023-12-20T10:03:05;8.10;99.90
3208;DHT22;1616;52.394;9.756;2023-12-20T10:05:32;8.20;99.90
3208;DHT22;1616;52.394;9.756;2023-12-20T10:07:59;8.20;99.90
3208;DHT22;1616;52.394;9.756;2023-12-20T10:10:26;8.20;99.90
3208;DHT22;1616;52.394;9.756;2023-12-20T10:13:05;8.30;99.90
3208;DHT22;1616;52.394;9.756;2023-12-20T10:15:34;8.40;99.90
3208;DHT22;1616;52.394;9.756;2023-12-20T10:18:01;8.50;99.90
3208;DHT22;1616;52.394;9.756;2023-12-20T10:20:29;8.50;99.90
3208;DHT22;1616;52.394;9.756;2023-12-20T10:22:56;8.50;99.90
3208;DHT22;1616;52.394;9.756;2023-12-20T10:25:22;8.50;99.90
3208;DHT22;1616;52.394;9.756;2023-12-20T10:27:50;8.60;99.90
3208;DHT22;1616;52.394;9.756;2023-12-20T10:30:16;8.60;99.90
3208;DHT22;1616;52.394;9.756;2023-12-20T10:32:41;8.70;99.90
3208;DHT22;1616;52.394;9.756;2023-12-20T10:35:08;8.70;99.90
3208;DHT22;1616;52.394;9.756;2023-12-20T10:37:37;8.70;99.90
3208;DHT22;1616;52.394;9.756;2023-12-20T10:40:05;8.70;99.90
3208;DHT22;1616;52.394;9.756;2023-12-20T10:42:32;8.60;99.90
3208;DHT22;1616;52.394;9.756;2023-12-20T10:45:00;8.60;99.90
3208;DHT22;1616;52.394;9.756;2023-12-20T10:47:25;8.50;99.90
3208;DHT22;1616;52.394;9.756;2023-12-20T10:49:55;8.30;99.90
3208;DHT22;1616;52.394;9.756;2023-12-20T10:52:23;8.20;99.90
3208;DHT22;1616;52.394;9.756;2023-12-20T10:54:49;8.20;99.90
3208;DHT22;1616;52.394;9.756;2023-12-20T10:57:16;8.10;99.90
3208;DHT22;1616;52.394;9.756;2023-12-20T10:59:45;8.20;99.90
3208;DHT22;1616;52.394;9.756;2023-12-20T11:02:13;8.20;99.90
3208;DHT22;1616;52.394;9.756;2023-12-20T11:04:55;8.20;99.90
3208;DHT22;1616;52.394;9.756;2023-12-20T11:07:38;8.20;99.90
3208;DHT22;1616;52.394;9.756;2023-12-20T11:10:43;8.30;99.90
3208;DHT22;1616;52.394;9.756;2023-12-20T11:13:26;8.30;99.90
3208;DHT22;1616;52.394;9.756;2023-12-20T11:15:53;8.30;99.90
3208;DHT22;1616;52.394;9.756;2023-12-20T11:18:19;8.30;99.90
3208;DHT22;1616;52.394;9.756;2023-12-20T11:20:44;8.20;99.90
3208;DHT22;1616;52.394;9.756;2023-12-20T11:23:10;8.10;99.90
3208;DHT22;1616;52.394;9.756;2023-12-20T11:25:56;8.00;99.90
3208;DHT22;1616;52.394;9.756;2023-12-20T11:28:26;7.90;99.90
3208;DHT22;1616;52.394;9.756;2023-12-20T11:30:52;7.80;99.90
3208;DHT22;1616;52.394;9.756;2023-12-20T11:33:26;7.80;99.90
3208;DHT22;1616;52.394;9.756;2023-12-20T11:35:55;7.70;99.90
3208;DHT22;1616;52.394;9.756;2023-12-20T11:38:21;7.70;99.90
3208;DHT22;1616;52.394;9.756;2023-12-20T11:40:51;7.60;99.90
3208;DHT22;1616;52.394;9.756;2023-12-20T11:43:32;7.60;99.90
3208;DHT22;1616;52.394;9.756;2023-12-20T11:46:07;7.50;99.90
3208;DHT22;1616;52.394;9.756;2023-12-20T11:48:37;7.50;99.90
3208;DHT22;1616;52.394;9.756;2023-12-20T11:51:09;7.40;99.90
3208;DHT22;1616;52.394;9.756;2023-12-20T11:53:35;7.40;99.90
3208;DHT22;1616;52.394;9.756;2023-12-20T11:56:03;7.30;99.90
3208;DHT22;1616;52.394;9.756;2023-12-20T11:58:29;7.20;99.90
3208;DHT22;1616;52.394;9.756;2023-12-20T12:00:56;7.10;99.90
3208;DHT22;1616;52.394;9.756;2023-12-20T12:03:22;7.10;99.90
3208;DHT22;1616;52.394;9.756;2023-12-20T12:05:49;7.00;99.90
3208;DHT22;1616;52.394;9.756;2023-12-20T12:08:19;7.00;99.90
3208;DHT22;1616;52.394;9.756;2023-12-20T12:10:45;7.00;99.90
3208;DHT22;1616;52.394;9.756;2023-12-20T12:13:11;6.90;99.90
3208;DHT22;1616;52.394;9.756;2023-12-20T12:15:37;6.90;99.90
3208;DHT22;1616;52.394;9.756;2023-12-20T12:18:03;6.90;99.90
3208;DHT22;1616;52.394;9.756;2023-12-20T12:20:29;6.80;99.90
3208;DHT22;1616;52.394;9.756;2023-12-20T12:25:25;6.90;99.90
3208;DHT22;1616;52.394;9.756;2023-12-20T12:27:51;6.90;99.90
3208;DHT22;1616;52.394;9.756;2023-12-20T12:30:17;6.90;99.90
3208;DHT22;1616;52.394;9.756;2023-12-20T12:32:44;6.90;99.90
3208;DHT22;1616;52.394;9.756;2023-12-20T12:35:10;6.90;99.90
3208;DHT22;1616;52.394;9.756;2023-12-20T12:37:41;6.90;99.90
3208;DHT22;1616;52.394;9.756;2023-12-20T12:40:10;6.90;99.90
3208;DHT22;1616;52.394;9.756;2023-12-20T12:42:37;6.90;99.90
3208;DHT22;1616;52.394;9.756;2023-12-20T12:45:03;6.90;99.90
3208;DHT22;1616;52.394;9.756;2023-12-20T12:47:29;6.90;99.90
3208;DHT22;1616;52.394;9.756;2023-12-20T12:49:54;6.90;99.90
3208;DHT22;1616;52.394;9.756;2023-12-20T12:52:20;6.90;99.90
3208;DHT22;1616;52.394;9.756;2023-12-20T12:54:45;7.00;99.90
3208;DHT22;1616;52.394;9.756;2023-12-20T12:57:13;7.00;99.90
3208;DHT22;1616;52.394;9.756;2023-12-20T12:59:39;7.00;99.90
3208;DHT22;1616;52.394;9.756;2023-12-20T13:02:05;7.10;99.90
3208;DHT22;1616;52.394;9.756;2023-12-20T13:04:31;7.00;99.90
3208;DHT22;1616;52.394;9.756;2023-12-20T13:06:56;7.00;99.90
3208;DHT22;1616;52.394;9.756;2023-12-20T13:09:23;7.00;99.90
3208;DHT22;1616;52.394;9.756;2023-12-20T13:11:48;6.90;99.90
3208;DHT22;1616;52.394;9.756;2023-12-20T13:14:14;6.80;99.90
3208;DHT22;1616;52.394;9.756;2023-12-20T13:16:42;6.80;99.90
3208;DHT22;1616;52.394;9.756;2023-12-20T13:19:08;6.80;99.90
3208;DHT22;1616;52.394;9.756;2023-12-20T13:21:34;6.70;99.90
3208;DHT22;1616;52.394;9.756;2023-12-20T13:24:00;6.80;99.90
3208;DHT22;1616;52.394;9.756;2023-12-20T13:26:26;6.80;99.90
3208;DHT22;1616;52.394;9.756;2023-12-20T13:28:52;6.80;99.90
3208;DHT22;1616;52.394;9.756;2023-12-20T13:31:19;6.90;99.90
3208;DHT22;1616;52.394;9.756;2023-12-20T13:33:44;6.90;99.90
3208;DHT22;1616;52.394;9.756;2023-12-20T13:36:10;6.90;99.90
3208;DHT22;1616;52.394;9.756;2023-12-20T13:38:36;7.00;99.90
3208;DHT22;1616;52.394;9.756;2023-12-20T13:41:01;7.00;99.90
3208;DHT22;1616;52.394;9.756;2023-12-20T13:43:27;7.00;99.90
3208;DHT22;1616;52.394;9.756;2023-12-20T13:45:53;7.10;99.90
3208;DHT22;1616;52.394;9.756;2023-12-20T13:48:19;7.10;99.90
3208;DHT22;1616;52.394;9.756;2023-12-20T13:50:44;7.20;99.90
3208;DHT22;1616;52.394;9.756;2023-12-20T13:53:10;7.20;99.90
3208;DHT22;1616;52.394;9.756;2023-12-20T13:55:36;7.30;99.90
3208;DHT22;1616;52.394;9.756;2023-12-20T13:58:02;7.30;99.90
3208;DHT22;1616;52.394;9.756;2023-12-20T14:00:27;7.30;99.90
3208;DHT22;1616;52.394;9.756;2023-12-20T14:02:53;7.40;99.90
3208;DHT22;1616;52.394;9.756;2023-12-20T14:05:18;7.30;99.90
3208;DHT22;1616;52.394;9.756;2023-12-20T14:07:45;7.30;99.90
3208;DHT22;1616;52.394;9.756;2023-12-20T14:10:13;7.30;99.90
3208;DHT22;1616;52.394;9.756;2023-12-20T14:12:39;7.30;99.90
3208;DHT22;1616;52.394;9.756;2023-12-20T14:15:06;7.30;99.90
3208;DHT22;1616;52.394;9.756;2023-12-20T14:17:37;7.30;99.90
3208;DHT22;1616;52.394;9.756;2023-12-20T14:20:05;7.40;99.90
3208;DHT22;1616;52.394;9.756;2023-12-20T14:22:31;7.40;99.90
3208;DHT22;1616;52.394;9.756;2023-12-20T14:24:57;7.40;99.90
3208;DHT22;1616;52.394;9.756;2023-12-20T14:27:23;7.40;99.90
3208;DHT22;1616;52.394;9.756;2023-12-20T14:29:50;7.40;99.90
3208;DHT22;1616;52.394;9.756;2023-12-20T14:32:16;7.50;99.90
3208;DHT22;1616;52.394;9.756;2023-12-20T14:34:41;7.60;99.90
3208;DHT22;1616;52.394;9.756;2023-12-20T14:37:08;7.50;99.90
3208;DHT22;1616;52.394;9.756;2023-12-20T14:39:33;7.50;99.90
3208;DHT22;1616;52.394;9.756;2023-12-20T14:42:00;7.50;99.90
3208;DHT22;1616;52.394;9.756;2023-12-20T14:44:26;7.50;99.90
3208;DHT22;1616;52.394;9.756;2023-12-20T14:46:52;7.50;99.90
3208;DHT22;1616;52.394;9.756;2023-12-20T14:49:17;7.50;99.90
3208;DHT22;1616;52.394;9.756;2023-12-20T14:51:46;7.50;99.90
3208;DHT22;1616;52.394;9.756;2023-12-20T14:54:13;7.50;99.90
3208;DHT22;1616;52.394;9.756;2023-12-20T14:56:40;7.50;99.90
3208;DHT22;1616;52.394;9.756;2023-12-20T14:59:06;7.50;99.90
3208;DHT22;1616;52.394;9.756;2023-12-20T15:01:31;7.50;99.90
3208;DHT22;1616;52.394;9.756;2023-12-20T15:03:57;7.40;99.90
3208;DHT22;1616;52.394;9.756;2023-12-20T15:06:22;7.40;99.90
3208;DHT22;1616;52.394;9.756;2023-12-20T15:08:48;7.40;99.90
3208;DHT22;1616;52.394;9.756;2023-12-20T15:11:14;7.40;99.90
3208;DHT22;1616;52.394;9.756;2023-12-20T15:13:40;7.40;99.90
3208;DHT22;1616;52.394;9.756;2023-12-20T15:16:06;7.40;99.90
3208;DHT22;1616;52.394;9.756;2023-12-20T15:18:32;7.40;99.90
3208;DHT22;1616;52.394;9.756;2023-12-20T15:20:57;7.40;99.90
3208;DHT22;1616;52.394;9.756;2023-12-20T15:23:23;7.40;99.90
3208;DHT22;1616;52.394;9.756;2023-12-20T15:25:51;7.40;99.90
3208;DHT22;1616;52.394;9.756;2023-12-20T15:28:17;7.40;99.90
3208;DHT22;1616;52.394;9.756;2023-12-20T15:30:44;7.40;99.90
3208;DHT22;1616;52.394;9.756;2023-12-20T15:33:09;7.40;99.90
3208;DHT22;1616;52.394;9.756;2023-12-20T15:35:35;7.40;99.90
3208;DHT22;1616;52.394;9.756;2023-12-20T15:38:00;7.30;99.90
3208;DHT22;1616;52.394;9.756;2023-12-20T15:40:27;7.40;99.90
3208;DHT22;1616;52.394;9.756;2023-12-20T15:42:52;7.40;99.90
3208;DHT22;1616;52.394;9.756;2023-12-20T15:45:18;7.30;99.90
3208;DHT22;1616;52.394;9.756;2023-12-20T15:47:44;7.40;99.90
3208;DHT22;1616;52.394;9.756;2023-12-20T15:50:12;7.40;99.90
3208;DHT22;1616;52.394;9.756;2023-12-20T15:52:37;7.40;99.90
3208;DHT22;1616;52.394;9.756;2023-12-20T15:55:04;7.40;99.90
3208;DHT22;1616;52.394;9.756;2023-12-20T15:57:29;7.40;99.90
3208;DHT22;1616;52.394;9.756;2023-12-20T15:59:55;7.30;99.90
3208;DHT22;1616;52.394;9.756;2023-12-20T16:02:20;7.30;99.90
3208;DHT22;1616;52.394;9.756;2023-12-20T16:04:48;7.20;99.90
3208;DHT22;1616;52.394;9.756;2023-12-20T16:07:13;7.10;99.90
3208;DHT22;1616;52.394;9.756;2023-12-20T16:09:39;7.10;99.90
3208;DHT22;1616;52.394;9.756;2023-12-20T16:12:05;6.90;99.90
3208;DHT22;1616;52.394;9.756;2023-12-20T16:14:30;6.80;99.90